Time;durP1;ratioP1;P1;durP2;ratioP2;P2;SDS_P1;SDS_P2;PMS_P1;PMS_P2;Temp;Humidity;BMP_temperature;BMP_pressure;BME280_temperature;BME280_humidity;BME280_pressure;Samples;Min_cycle;Max_cycle;Signal;HPM_P1;HPM_P2
2022/05/15 00:00:37;;;;;;;3.22;2.92;;;12.20;99.90;;;;;;4965208;28;20027;-76
2022/05/15 00:00:40;;;;;;;3.25;2.88;;;12.20;99.90;;;;;;4972061;28;20045;-77
2022/05/15 00:03:16;;;;;;;4.20;2.70;;;12.20;99.90;;;;;;4984621;28;20050;-77
2022/05/15 00:05:43;;;;;;;5.85;2.70;;;12.10;99.90;;;;;;4974372;28;20049;-77
2022/05/15 00:08:10;;;;;;;4.65;3.00;;;12.10;99.90;;;;;;4980397;28;20410;-77
2022/05/15 00:10:39;;;;;;;4.32;3.05;;;12.00;99.90;;;;;;4985133;28;20121;-77
2022/05/15 00:13:05;;;;;;;;;;;11.90;99.90;;;;;;4986063;28;20448;-77
2022/05/15 00:15:33;;;;;;;3.67;2.80;;;11.80;99.90;;;;;;4990873;28;19909;-77
2022/05/15 00:17:58;;;;;;;4.32;2.83;;;11.60;99.90;;;;;;4989198;28;20045;-77
2022/05/15 00:20:24;;;;;;;3.47;2.78;;;11.60;99.90;;;;;;4960746;28;20441;-77
2022/05/15 00:22:50;;;;;;;4.88;2.60;;;11.70;99.90;;;;;;4986318;28;20385;-77
2022/05/15 00:25:17;;;;;;;6.22;2.70;;;11.70;99.90;;;;;;4983582;28;20021;-77
2022/05/15 00:27:42;;;;;;;4.22;2.45;;;11.60;99.90;;;;;;4990982;28;20113;-76
2022/05/15 00:30:09;;;;;;;3.03;2.40;;;11.70;99.90;;;;;;4988298;28;20056;-76
2022/05/15 00:32:34;;;;;;;5.13;2.80;;;11.70;99.90;;;;;;4985733;28;20046;-77
2022/05/15 00:35:00;;;;;;;3.47;2.38;;;11.80;99.90;;;;;;4990498;28;20077;-76
2022/05/15 00:37:26;;;;;;;4.38;3.05;;;11.70;99.90;;;;;;4970300;28;20050;-77
2022/05/15 00:39:52;;;;;;;3.08;2.60;;;11.80;99.90;;;;;;4983025;28;20031;-76
2022/05/15 00:42:18;;;;;;;3.38;3.08;;;11.80;99.90;;;;;;4991550;28;20034;-77
2022/05/15 00:44:43;;;;;;;3.60;2.75;;;11.70;99.90;;;;;;4984515;28;20038;-76
2022/05/15 00:47:09;;;;;;;4.90;2.75;;;11.70;99.90;;;;;;4992682;28;20390;-75
2022/05/15 00:49:35;;;;;;;4.20;2.70;;;11.50;99.90;;;;;;4980521;28;20041;-77
2022/05/15 00:52:07;;;;;;;3.17;2.70;;;11.50;99.90;;;;;;4985574;28;20029;-77
2022/05/15 00:54:38;;;;;;;4.60;2.78;;;11.50;99.90;;;;;;4988827;28;20415;-77
2022/05/15 00:57:36;;;;;;;3.13;2.50;;;11.50;99.90;;;;;;4990978;28;20157;-77
2022/05/15 01:00:11;;;;;;;2.95;2.45;;;11.40;99.90;;;;;;4979008;28;20393;-76
2022/05/15 01:02:42;;;;;;;3.58;2.60;;;11.50;99.90;;;;;;4982708;28;20772;-76
2022/05/15 01:05:11;;;;;;;4.40;2.70;;;11.50;99.90;;;;;;4987370;28;20035;-77
2022/05/15 01:07:37;;;;;;;3.42;2.42;;;11.40;99.90;;;;;;4993855;28;20030;-77
2022/05/15 01:10:05;;;;;;;5.53;2.60;;;11.40;99.90;;;;;;4981726;28;20033;-77
2022/05/15 01:12:33;;;;;;;2.85;2.25;;;11.30;99.90;;;;;;4992553;28;20105;-76
2022/05/15 01:14:59;;;;;;;2.88;2.65;;;11.30;99.90;;;;;;4990587;28;20043;-76
2022/05/15 01:17:25;;;;;;;3.45;2.80;;;11.30;99.90;;;;;;4990364;28;20042;-76
2022/05/15 01:20:07;;;;;;;4.32;2.50;;;11.30;99.90;;;;;;4987108;28;20037;-76
2022/05/15 01:22:33;;;;;;;3.35;2.60;;;11.30;99.90;;;;;;4992941;28;20042;-77
2022/05/15 01:24:58;;;;;;;2.67;2.33;;;11.20;99.90;;;;;;4980597;28;20047;-76
2022/05/15 01:27:24;;;;;;;2.97;2.63;;;11.20;99.90;;;;;;4984864;28;20037;-77
2022/05/15 01:29:49;;;;;;;2.67;2.47;;;11.20;99.90;;;;;;4986624;28;20101;-76
2022/05/15 01:32:15;;;;;;;3.00;2.70;;;11.20;99.90;;;;;;4983857;28;20497;-77
2022/05/15 01:34:41;;;;;;;4.80;2.88;;;11.10;99.90;;;;;;4971371;28;20042;-77
2022/05/15 01:37:08;;;;;;;2.75;2.55;;;11.00;99.90;;;;;;4994950;28;20041;-76
2022/05/15 01:39:34;;;;;;;3.05;2.58;;;11.00;99.90;;;;;;4985223;28;20034;-76
2022/05/15 01:42:01;;;;;;;2.83;2.45;;;11.00;99.90;;;;;;4989973;28;20042;-77
2022/05/15 01:44:27;;;;;;;3.20;2.42;;;11.00;99.90;;;;;;4980181;28;20034;-76
2022/05/15 01:46:53;;;;;;;4.40;2.55;;;10.90;99.90;;;;;;4983022;28;20522;-76
2022/05/15 01:49:19;;;;;;;2.75;2.53;;;11.00;99.90;;;;;;4986358;28;20401;-77
2022/05/15 01:51:46;;;;;;;3.60;2.50;;;11.00;99.90;;;;;;4991366;28;20034;-77
2022/05/15 01:54:12;;;;;;;2.33;2.13;;;10.90;99.90;;;;;;4982358;28;20104;-77
2022/05/15 01:56:38;;;;;;;4.05;2.55;;;10.90;99.90;;;;;;4988805;28;20489;-77
2022/05/15 01:59:06;;;;;;;4.70;2.85;;;10.80;99.90;;;;;;4963187;28;20043;-77
2022/05/15 02:01:32;;;;;;;3.33;2.67;;;10.80;99.90;;;;;;4979838;28;20051;-76
2022/05/15 02:03:57;;;;;;;2.65;2.45;;;10.70;99.90;;;;;;4981065;28;20050;-77
2022/05/15 02:06:23;;;;;;;3.92;2.53;;;10.70;99.90;;;;;;4988425;28;20037;-77
2022/05/15 02:08:49;;;;;;;3.50;2.40;;;10.70;99.90;;;;;;4980772;28;20038;-77
2022/05/15 02:11:15;;;;;;;3.38;2.40;;;10.60;99.90;;;;;;4984517;28;20390;-77
2022/05/15 02:13:41;;;;;;;3.10;2.45;;;10.60;99.90;;;;;;4970180;28;20034;-77
2022/05/15 02:16:07;;;;;;;3.72;2.85;;;10.50;99.90;;;;;;4971866;28;20042;-77
2022/05/15 02:18:33;;;;;;;4.82;2.70;;;10.40;99.90;;;;;;4991042;28;20057;-77
2022/05/15 02:20:59;;;;;;;3.63;3.03;;;10.30;99.90;;;;;;4984302;28;20034;-76
2022/05/15 02:23:26;;;;;;;3.80;3.10;;;10.30;99.90;;;;;;4982321;28;20149;-76
2022/05/15 02:25:52;;;;;;;4.05;2.45;;;10.30;99.90;;;;;;4987124;28;20030;-77
2022/05/15 02:28:18;;;;;;;2.72;2.53;;;10.30;99.90;;;;;;4986220;28;20034;-77
2022/05/15 02:30:44;;;;;;;2.90;2.10;;;10.30;99.90;;;;;;4988434;28;20061;-77
2022/05/15 02:33:09;;;;;;;3.95;2.80;;;10.20;99.90;;;;;;4981372;28;20046;-77
2022/05/15 02:35:35;;;;;;;3.30;2.40;;;10.20;99.90;;;;;;4988845;28;20041;-77
2022/05/15 02:38:00;;;;;;;2.40;2.20;;;10.00;99.90;;;;;;4990415;28;20196;-76
2022/05/15 02:40:26;;;;;;;1.77;1.67;;;10.00;99.90;;;;;;4982650;28;20050;-77
2022/05/15 02:42:55;;;;;;;2.88;2.08;;;10.10;99.90;;;;;;4984838;28;20037;-77
2022/05/15 02:45:21;;;;;;;2.38;2.00;;;10.10;99.90;;;;;;4985800;28;20030;-77
2022/05/15 02:47:47;;;;;;;2.97;2.67;;;10.20;99.90;;;;;;4978537;28;20089;-76
2022/05/15 02:52:58;;;;;;;3.47;2.50;;;10.20;99.90;;;;;;4988735;28;20041;-77
2022/05/15 02:55:25;;;;;;;2.50;2.30;;;10.10;99.90;;;;;;4986070;28;20030;-76
2022/05/15 02:57:51;;;;;;;2.97;2.67;;;10.10;99.90;;;;;;4984845;28;20042;-77
2022/05/15 03:00:19;;;;;;;2.90;2.70;;;10.10;99.90;;;;;;4984742;28;20087;-77
2022/05/15 03:02:45;;;;;;;4.00;2.83;;;10.10;99.90;;;;;;4982325;28;20106;-78
2022/05/15 03:05:12;;;;;;;3.97;2.70;;;10.00;99.90;;;;;;4984423;28;20432;-76
2022/05/15 03:07:38;;;;;;;3.93;3.00;;;10.00;99.90;;;;;;4989753;28;20070;-76
2022/05/15 03:10:05;;;;;;;3.83;2.75;;;10.10;99.90;;;;;;4985994;28;20033;-77
2022/05/15 03:12:31;;;;;;;4.40;2.75;;;10.00;99.90;;;;;;4982632;28;20038;-76
2022/05/15 03:14:56;;;;;;;2.55;2.35;;;10.00;99.90;;;;;;4982045;28;20406;-76
2022/05/15 03:17:22;;;;;;;2.20;2.00;;;10.00;99.90;;;;;;4984583;28;20047;-77
2022/05/15 03:19:48;;;;;;;4.90;2.65;;;10.00;99.90;;;;;;4982674;28;20029;-77
2022/05/15 03:22:14;;;;;;;4.35;2.35;;;9.90;99.90;;;;;;4967013;28;20030;-76
2022/05/15 03:24:39;;;;;;;2.78;2.58;;;9.70;99.90;;;;;;4986592;28;20037;-76
2022/05/15 03:27:05;;;;;;;2.97;2.78;;;9.70;99.90;;;;;;4990986;28;20042;-77
2022/05/15 03:29:31;;;;;;;2.70;2.47;;;9.70;99.90;;;;;;4991420;28;20030;-76
2022/05/15 03:31:57;;;;;;;3.67;2.78;;;9.80;99.90;;;;;;4986074;28;20082;-76
2022/05/15 03:34:23;;;;;;;2.58;2.38;;;9.70;99.90;;;;;;4982883;28;20030;-75
2022/05/15 03:36:52;;;;;;;3.42;2.55;;;9.80;99.90;;;;;;4987928;28;20034;-76
2022/05/15 03:39:19;;;;;;;3.90;3.00;;;9.70;99.90;;;;;;4988043;28;20065;-76
2022/05/15 03:41:46;;;;;;;2.97;2.67;;;9.70;99.90;;;;;;4990363;28;20129;-76
2022/05/15 03:44:13;;;;;;;3.45;2.63;;;9.70;99.90;;;;;;4981429;28;20125;-76
2022/05/15 03:46:39;;;;;;;3.28;2.67;;;9.70;99.90;;;;;;4958993;28;20391;-76
2022/05/15 03:49:06;;;;;;;2.72;2.53;;;9.70;99.90;;;;;;4985608;28;20490;-76
2022/05/15 03:51:32;;;;;;;3.45;2.45;;;9.70;99.90;;;;;;4984126;28;20038;-76
2022/05/15 03:53:58;;;;;;;3.08;2.60;;;9.60;99.90;;;;;;4980058;28;20027;-76
2022/05/15 03:59:10;;;;;;;3.42;2.70;;;9.60;99.90;;;;;;4987868;28;20444;-76
2022/05/15 04:01:36;;;;;;;2.63;2.35;;;9.60;99.90;;;;;;4984784;28;20054;-76
2022/05/15 04:04:01;;;;;;;3.60;3.10;;;9.70;99.90;;;;;;4966021;28;20042;-77
2022/05/15 04:06:28;;;;;;;3.70;2.33;;;9.70;99.90;;;;;;4968336;28;20084;-77
2022/05/15 04:08:54;;;;;;;2.50;2.30;;;9.70;99.90;;;;;;4989834;28;20044;-76
2022/05/15 04:11:19;;;;;;;2.78;2.10;;;9.60;99.90;;;;;;4984819;28;20030;-77
2022/05/15 04:13:45;;;;;;;1.90;1.77;;;9.60;99.90;;;;;;4984286;28;20082;-78
2022/05/15 04:16:11;;;;;;;2.20;2.10;;;9.70;99.90;;;;;;4988027;28;20113;-77
2022/05/15 04:18:37;;;;;;;2.67;2.42;;;9.70;99.90;;;;;;4989962;28;20550;-77
2022/05/15 04:21:03;;;;;;;3.10;2.80;;;9.80;99.90;;;;;;4988110;28;20813;-76
2022/05/15 04:23:29;;;;;;;5.10;2.92;;;9.70;99.90;;;;;;4994251;28;20040;-77
2022/05/15 04:25:56;;;;;;;3.05;2.53;;;9.70;99.90;;;;;;4994874;28;20034;-78
2022/05/15 04:28:22;;;;;;;2.83;2.58;;;9.70;99.90;;;;;;4996976;28;20022;-78
2022/05/15 04:30:48;;;;;;;3.25;2.88;;;9.70;99.90;;;;;;4991456;28;20129;-77
2022/05/15 04:33:14;;;;;;;2.83;2.55;;;9.70;99.90;;;;;;4986741;28;20053;-78
2022/05/15 04:35:40;;;;;;;3.22;2.92;;;9.80;99.90;;;;;;4989697;28;20037;-76
2022/05/15 04:38:10;;;;;;;3.08;2.40;;;9.60;99.90;;;;;;4993064;28;20038;-78
2022/05/15 04:40:37;;;;;;;2.60;2.40;;;9.60;99.90;;;;;;4977262;28;20450;-77
2022/05/15 04:43:03;;;;;;;4.03;2.70;;;9.70;99.90;;;;;;4982514;28;20129;-77
2022/05/15 04:45:29;;;;;;;4.45;2.58;;;9.80;99.90;;;;;;4968350;28;20209;-77
2022/05/15 04:47:55;;;;;;;2.35;2.17;;;9.80;99.90;;;;;;4990647;28;20034;-76
2022/05/15 04:50:21;;;;;;;2.88;2.67;;;9.90;99.90;;;;;;4993627;28;20031;-77
2022/05/15 04:52:48;;;;;;;3.10;2.50;;;10.00;99.90;;;;;;4981039;28;20030;-77
2022/05/15 04:55:15;;;;;;;3.33;2.97;;;10.00;99.90;;;;;;4976563;28;20031;-76
2022/05/15 04:57:41;;;;;;;2.90;2.70;;;10.00;99.90;;;;;;4985945;28;20046;-77
2022/05/15 05:00:17;;;;;;;3.03;2.80;;;10.10;99.90;;;;;;4988086;28;20081;-78
2022/05/15 05:02:43;;;;;;;3.20;2.90;;;10.10;99.90;;;;;;4981748;28;20058;-77
2022/05/15 05:05:10;;;;;;;3.80;3.30;;;10.10;99.90;;;;;;4988721;28;20409;-76
2022/05/15 05:07:36;;;;;;;4.32;2.85;;;10.10;99.90;;;;;;4987659;28;20093;-77
2022/05/15 05:10:02;;;;;;;3.45;3.15;;;10.20;99.90;;;;;;4972862;28;20057;-77
2022/05/15 05:12:28;;;;;;;4.53;3.47;;;10.30;99.90;;;;;;4981235;28;20042;-78
2022/05/15 05:14:54;;;;;;;4.57;4.03;;;10.50;99.90;;;;;;4986749;28;20033;-78
2022/05/15 05:17:21;;;;;;;3.40;3.10;;;10.60;99.90;;;;;;4971503;28;20034;-78
2022/05/15 05:19:46;;;;;;;4.88;3.63;;;10.70;99.90;;;;;;4988574;28;20547;-78
2022/05/15 05:22:15;;;;;;;4.07;3.20;;;10.90;99.90;;;;;;4993575;28;20075;-77
2022/05/15 05:24:41;;;;;;;3.47;3.10;;;11.20;99.90;;;;;;4975036;28;20374;-78
2022/05/15 05:27:07;;;;;;;3.45;2.95;;;11.40;99.90;;;;;;4989765;28;20039;-77
2022/05/15 05:29:35;;;;;;;3.35;3.05;;;11.50;99.90;;;;;;4975885;28;20525;-77
2022/05/15 05:32:01;;;;;;;3.70;3.20;;;11.60;99.90;;;;;;4992390;28;20058;-77
2022/05/15 05:34:27;;;;;;;6.03;3.35;;;11.70;99.90;;;;;;4990332;28;20647;-78
2022/05/15 05:36:53;;;;;;;4.32;3.75;;;12.00;99.90;;;;;;4988944;28;20031;-77
2022/05/15 05:39:19;;;;;;;5.43;3.42;;;12.10;99.90;;;;;;4987365;28;20042;-78
2022/05/15 05:41:45;;;;;;;5.07;3.38;;;12.20;99.90;;;;;;4990372;28;20050;-77
2022/05/15 05:44:11;;;;;;;5.15;3.90;;;12.20;99.90;;;;;;4985348;28;20042;-77
2022/05/15 05:46:37;;;;;;;4.20;3.70;;;12.30;99.90;;;;;;4989359;28;20042;-78
2022/05/15 05:49:03;;;;;;;4.80;3.35;;;12.40;99.90;;;;;;4990485;28;20038;-77
2022/05/15 05:51:29;;;;;;;5.10;3.75;;;12.40;99.90;;;;;;4970329;28;20497;-78
2022/05/15 05:53:54;;;;;;;4.53;3.67;;;12.50;99.90;;;;;;4984043;28;20015;-79
2022/05/15 05:56:20;;;;;;;6.15;4.57;;;12.70;99.90;;;;;;4989992;28;20121;-78
2022/05/15 05:58:46;;;;;;;4.82;3.90;;;12.70;99.90;;;;;;4986084;28;20129;-77
2022/05/15 06:01:13;;;;;;;5.18;4.43;;;12.70;99.90;;;;;;4986432;28;20104;-78
2022/05/15 06:06:23;;;;;;;5.57;4.80;;;12.90;99.90;;;;;;4989051;28;20077;-77
2022/05/15 06:08:49;;;;;;;5.60;4.95;;;12.90;99.90;;;;;;4986463;28;20053;-78
2022/05/15 06:11:15;;;;;;;6.97;4.28;;;13.00;99.90;;;;;;4986432;28;20434;-77
2022/05/15 06:13:40;;;;;;;5.75;4.63;;;13.20;99.90;;;;;;4989008;28;20410;-78
2022/05/15 06:16:07;;;;;;;9.05;5.28;;;13.40;99.90;;;;;;4988562;28;20041;-78
2022/05/15 06:18:33;;;;;;;5.47;4.53;;;13.60;99.90;;;;;;4971546;28;20407;-77
2022/05/15 06:20:59;;;;;;;8.07;4.97;;;13.70;99.90;;;;;;4984880;28;20656;-78
2022/05/15 06:23:25;;;;;;;7.40;4.90;;;13.80;99.90;;;;;;4972137;28;20113;-77
2022/05/15 06:25:51;;;;;;;10.07;5.65;;;14.00;99.90;;;;;;4991482;28;20027;-78
2022/05/15 06:28:16;;;;;;;7.43;5.03;;;14.20;99.90;;;;;;4968458;28;20038;-78
2022/05/15 06:30:42;;;;;;;6.35;5.18;;;14.30;99.90;;;;;;4980817;28;20125;-77
2022/05/15 06:33:08;;;;;;;5.20;4.60;;;14.40;99.90;;;;;;4966533;28;20045;-77
2022/05/15 06:35:34;;;;;;;6.88;5.28;;;14.50;99.90;;;;;;4968579;28;20027;-77
2022/05/15 06:38:01;;;;;;;6.25;4.95;;;14.70;99.90;;;;;;4966105;28;20070;-77
2022/05/15 06:40:27;;;;;;;6.45;4.80;;;14.90;99.90;;;;;;4967164;28;20042;-77
2022/05/15 06:42:52;;;;;;;5.35;4.85;;;15.00;99.90;;;;;;4966284;28;20442;-77
2022/05/15 06:45:18;;;;;;;5.45;4.82;;;15.20;99.90;;;;;;4966459;28;20073;-77
2022/05/15 06:47:44;;;;;;;5.90;4.55;;;15.40;99.90;;;;;;4969120;28;20041;-77
2022/05/15 06:50:10;;;;;;;9.23;5.78;;;15.60;99.90;;;;;;4957724;28;20488;-77
2022/05/15 06:52:37;;;;;;;9.77;4.88;;;15.60;99.90;;;;;;4965855;28;20938;-78
2022/05/15 06:55:06;;;;;;;5.72;5.22;;;15.70;99.90;;;;;;4971340;28;20027;-78
2022/05/15 06:57:33;;;;;;;6.80;5.40;;;16.00;99.90;;;;;;4967224;28;20074;-78
2022/05/15 07:00:07;;;;;;;7.57;5.10;;;16.00;99.90;;;;;;4950464;28;20038;-77
2022/05/15 07:02:33;;;;;;;6.85;5.30;;;16.30;99.90;;;;;;4976634;28;22078;-77
2022/05/15 07:05:04;;;;;;;8.13;5.07;;;16.50;99.90;;;;;;4987941;28;20053;-78
2022/05/15 07:07:30;;;;;;;7.03;4.88;;;16.70;99.90;;;;;;4980017;28;20042;-78
2022/05/15 07:09:59;;;;;;;7.93;5.43;;;16.70;99.90;;;;;;4982445;28;20026;-77
2022/05/15 07:12:25;;;;;;;8.43;5.38;;;16.90;99.90;;;;;;4986391;28;20030;-77
2022/05/15 07:14:51;;;;;;;8.70;5.32;;;17.00;99.90;;;;;;4985395;28;20121;-76
2022/05/15 07:17:17;;;;;;;6.70;5.03;;;17.10;99.90;;;;;;4985636;28;20117;-77
2022/05/15 07:19:42;;;;;;;6.25;4.95;;;17.20;99.90;;;;;;4987932;28;20034;-77
2022/05/15 07:22:10;;;;;;;7.68;5.25;;;17.30;99.90;;;;;;4988343;28;20046;-77
2022/05/15 07:24:39;;;;;;;7.43;5.28;;;17.30;99.90;;;;;;4986019;28;20479;-77
2022/05/15 07:27:08;;;;;;;6.47;5.35;;;17.40;99.90;;;;;;4983543;28;20034;-77
2022/05/15 07:29:36;;;;;;;6.65;4.90;;;17.60;99.90;;;;;;4985249;28;20093;-77
2022/05/15 07:32:04;;;;;;;5.53;4.60;;;17.80;99.90;;;;;;4979478;28;20042;-77
2022/05/15 07:34:29;;;;;;;7.30;5.40;;;17.90;99.90;;;;;;4979204;28;20056;-77
2022/05/15 07:36:55;;;;;;;5.32;4.78;;;17.90;99.90;;;;;;4994227;28;20054;-77
2022/05/15 07:39:21;;;;;;;6.60;4.88;;;18.00;99.90;;;;;;4987523;28;20046;-77
2022/05/15 07:41:48;;;;;;;5.80;4.80;;;18.10;99.90;;;;;;4991106;28;20027;-77
2022/05/15 07:44:15;;;;;;;5.93;5.25;;;18.20;99.20;;;;;;4993056;28;20029;-77
2022/05/15 07:46:41;;;;;;;4.97;4.45;;;18.50;99.90;;;;;;4988829;28;20062;-76
2022/05/15 07:49:08;;;;;;;7.75;4.60;;;18.60;99.90;;;;;;4985076;28;20042;-76
2022/05/15 07:51:34;;;;;;;4.68;4.20;;;18.60;99.20;;;;;;4971686;28;20027;-78
2022/05/15 07:54:01;;;;;;;6.82;4.97;;;18.70;96.60;;;;;;4986808;28;20031;-77
2022/05/15 07:56:27;;;;;;;6.60;4.45;;;18.80;97.60;;;;;;4984844;28;20113;-77
2022/05/15 07:58:52;;;;;;;5.78;4.80;;;19.00;95.80;;;;;;4986037;28;20045;-78
2022/05/15 08:01:18;;;;;;;7.75;4.57;;;19.20;95.70;;;;;;4987543;28;20046;-78
2022/05/15 08:03:45;;;;;;;5.95;5.10;;;19.30;94.50;;;;;;4984706;28;20061;-78
2022/05/15 08:08:59;;;;;;;7.30;4.60;;;19.60;93.30;;;;;;4980173;28;20512;-76
2022/05/15 08:11:28;;;;;;;5.45;4.55;;;19.60;89.10;;;;;;4983848;28;20066;-77
2022/05/15 08:13:55;;;;;;;7.30;4.22;;;19.70;93.90;;;;;;4987667;28;20034;-76
2022/05/15 08:16:22;;;;;;;8.35;4.43;;;19.80;91.10;;;;;;4984163;28;20062;-77
2022/05/15 08:24:16;;;;;;;4.50;4.07;;;20.00;90.70;;;;;;4983083;28;20033;-76
2022/05/15 08:26:41;;;;;;;7.53;4.43;;;20.20;90.20;;;;;;4984232;28;20031;-77
2022/05/15 08:29:07;;;;;;;6.47;4.30;;;20.40;89.00;;;;;;4985983;28;20101;-77
2022/05/15 08:31:33;;;;;;;6.53;4.10;;;20.60;89.60;;;;;;4986465;28;20038;-76
2022/05/15 08:33:59;;;;;;;7.25;3.88;;;20.80;83.30;;;;;;4987547;28;20046;-76
2022/05/15 08:36:25;;;;;;;4.50;4.10;;;20.70;79.90;;;;;;4989766;28;20046;-77
2022/05/15 08:38:51;;;;;;;4.70;3.60;;;20.90;76.80;;;;;;4985118;28;20034;-76
2022/05/15 08:41:31;;;;;;;6.88;3.95;;;20.80;81.10;;;;;;4985893;28;20035;-77
2022/05/15 08:44:16;;;;;;;3.85;3.20;;;21.00;69.60;;;;;;4964412;28;20038;-76
2022/05/15 08:47:03;;;;;;;4.43;3.80;;;21.20;77.80;;;;;;4982628;28;20039;-76
2022/05/15 08:49:42;;;;;;;5.40;3.58;;;21.40;77.30;;;;;;4990695;28;20038;-77
2022/05/15 08:52:29;;;;;;;4.13;2.63;;;21.40;65.20;;;;;;4982877;28;20058;-77
2022/05/15 08:55:14;;;;;;;3.75;2.80;;;21.50;67.10;;;;;;4980825;28;20026;-77
2022/05/15 08:58:03;;;;;;;4.80;2.75;;;21.70;55.40;;;;;;4967539;28;20039;-78
2022/05/15 09:00:39;;;;;;;4.00;2.60;;;21.80;62.70;;;;;;4974333;28;20054;-78
2022/05/15 09:03:25;;;;;;;2.65;2.28;;;21.80;53.40;;;;;;4987098;28;20058;-77
2022/05/15 09:06:03;;;;;;;2.13;1.92;;;21.90;54.40;;;;;;4987536;28;20034;-78
2022/05/15 09:09:05;;;;;;;2.90;2.33;;;22.10;54.10;;;;;;4985170;28;20038;-77
2022/05/15 09:11:43;;;;;;;3.50;2.30;;;22.10;63.60;;;;;;4987229;28;20041;-77
2022/05/15 09:14:13;;;;;;;;;;;22.20;57.50;;;;;;4987201;28;20031;-77
2022/05/15 09:16:55;;;;;;;1.85;1.70;;;22.20;51.90;;;;;;4991089;28;19914;-77
2022/05/15 09:19:22;;;;;;;3.15;1.95;;;22.10;49.10;;;;;;4982291;28;20106;-77
2022/05/15 09:21:52;;;;;;;3.17;2.00;;;22.40;49.90;;;;;;4988733;28;20042;-77
2022/05/15 09:24:51;;;;;;;4.63;2.30;;;22.60;49.40;;;;;;4980828;28;20034;-77
2022/05/15 09:27:27;;;;;;;4.28;1.92;;;22.70;52.10;;;;;;4983028;28;20037;-78
2022/05/15 09:29:56;;;;;;;2.35;1.73;;;22.70;49.10;;;;;;4985541;28;20359;-78
2022/05/15 09:32:56;;;;;;;2.08;1.88;;;22.60;47.10;;;;;;4984540;28;20039;-76
2022/05/15 09:35:35;;;;;;;1.60;1.50;;;22.40;48.80;;;;;;4974869;28;20110;-78
2022/05/15 09:43:50;;;;;;;3.15;1.70;;;22.40;44.40;;;;;;4987920;28;20386;-76
2022/05/15 09:46:18;;;;;;;1.90;1.60;;;22.40;48.20;;;;;;4986074;28;20164;-76
2022/05/15 09:48:56;;;;;;;4.15;1.88;;;22.60;47.00;;;;;;4987221;28;20026;-76
2022/05/15 09:51:43;;;;;;;2.25;1.65;;;22.90;48.70;;;;;;4984162;28;20042;-77
2022/05/15 09:54:11;;;;;;;;;;;22.60;44.00;;;;;;4985158;28;20044;-76
2022/05/15 09:56:37;;;;;;;3.28;2.08;;;22.70;42.70;;;;;;4968866;28;20264;-77
2022/05/15 09:59:11;;;;;;;3.03;1.45;;;22.50;42.70;;;;;;4988009;28;20027;-78
2022/05/15 10:01:56;;;;;;;4.55;1.60;;;22.60;43.30;;;;;;4990110;28;20066;-78
2022/05/15 10:04:24;;;;;;;1.65;1.55;;;22.50;44.60;;;;;;4970714;28;20054;-77
2022/05/15 10:06:58;;;;;;;1.88;1.65;;;22.60;44.40;;;;;;4990143;28;20057;-76
2022/05/15 10:09:35;;;;;;;2.80;1.70;;;22.70;42.80;;;;;;4989609;28;20069;-77
2022/05/15 10:12:10;;;;;;;2.55;1.38;;;23.00;43.90;;;;;;4970745;28;20112;-77
2022/05/15 10:14:44;;;;;;;3.97;1.55;;;22.80;39.50;;;;;;4986876;28;20030;-77
2022/05/15 10:17:13;;;;;;;2.88;1.73;;;22.70;42.80;;;;;;4984407;28;20046;-78
2022/05/15 10:20:04;;;;;;;2.22;1.60;;;22.60;42.20;;;;;;4970117;28;20046;-77
2022/05/15 10:22:52;;;;;;;3.55;1.58;;;22.60;42.50;;;;;;4972548;28;20493;-77
2022/05/15 10:25:42;;;;;;;1.98;1.40;;;22.80;40.90;;;;;;4982354;28;20058;-77
2022/05/15 10:28:22;;;;;;;3.92;1.50;;;22.90;41.30;;;;;;4959643;28;20049;-77
2022/05/15 10:31:01;;;;;;;2.45;1.60;;;22.80;41.90;;;;;;4969481;28;20054;-76
2022/05/15 10:33:31;;;;;;;2.10;1.70;;;22.70;40.80;;;;;;4984812;28;20038;-77
2022/05/15 10:36:09;;;;;;;2.53;1.48;;;22.80;43.40;;;;;;4987855;28;20070;-77
2022/05/15 10:38:40;;;;;;;5.10;1.65;;;22.90;42.60;;;;;;4987036;28;20042;-76
2022/05/15 10:41:13;;;;;;;1.48;1.38;;;22.80;42.20;;;;;;4984649;28;21028;-76
2022/05/15 10:44:11;;;;;;;2.80;1.25;;;22.80;42.70;;;;;;4988682;28;20100;-76
2022/05/15 10:46:57;;;;;;;;;;;23.00;41.50;;;;;;4987289;28;20041;-76
2022/05/15 10:49:51;;;;;;;2.45;2.25;;;23.10;42.70;;;;;;4984505;28;19955;-77
2022/05/15 10:52:23;;;;;;;2.22;1.40;;;23.40;41.40;;;;;;4980868;28;20034;-77
2022/05/15 10:57:54;;;;;;;2.65;1.52;;;23.70;40.90;;;;;;4978406;28;20449;-75
2022/05/15 11:00:36;;;;;;;3.70;1.58;;;23.60;40.60;;;;;;4961939;28;20027;-77
2022/05/15 11:03:26;;;;;;;3.15;1.60;;;23.60;39.30;;;;;;4985213;28;20062;-77
2022/05/15 11:06:14;;;;;;;2.08;1.35;;;23.70;42.10;;;;;;4969195;28;20088;-77
2022/05/15 11:08:39;;;;;;;;;;;23.70;40.70;;;;;;4984925;28;20038;-76
2022/05/15 11:11:27;;;;;;;1.15;1.10;;;23.70;36.00;;;;;;4965853;28;19965;-77
2022/05/15 11:13:55;;;;;;;;;;;23.60;35.40;;;;;;4986744;28;20053;-77
2022/05/15 11:16:30;;;;;;;1.92;1.35;;;23.70;39.80;;;;;;4968735;28;19918;-76
2022/05/15 11:19:35;;;;;;;1.73;1.13;;;23.70;37.60;;;;;;4983615;28;20038;-77
2022/05/15 11:22:37;;;;;;;2.85;1.10;;;23.50;32.60;;;;;;4965230;28;20045;-76
2022/05/15 11:25:15;;;;;;;2.10;1.40;;;23.50;35.70;;;;;;4985881;28;20150;-77
2022/05/15 11:27:48;;;;;;;1.63;1.20;;;23.50;36.20;;;;;;4984702;28;20037;-77
2022/05/15 11:30:28;;;;;;;3.35;1.38;;;23.50;37.90;;;;;;4982693;28;20467;-79
2022/05/15 11:32:54;;;;;;;3.50;1.25;;;23.60;37.80;;;;;;4985997;28;20030;-77
2022/05/15 11:35:22;;;;;;;1.20;1.10;;;23.70;35.10;;;;;;4984520;28;20108;-77
2022/05/15 11:37:57;;;;;;;2.97;1.58;;;23.80;35.40;;;;;;4979857;28;20039;-77
2022/05/15 11:40:52;;;;;;;2.83;1.45;;;23.90;37.20;;;;;;4987323;28;20061;-76
2022/05/15 11:43:30;;;;;;;1.92;1.20;;;23.70;38.10;;;;;;4943549;28;20050;-76
2022/05/15 11:46:01;;;;;;;2.60;1.83;;;23.60;38.60;;;;;;4984996;28;20482;-77
2022/05/15 11:48:37;;;;;;;2.08;1.30;;;23.60;37.20;;;;;;4984168;28;20048;-76
2022/05/15 11:51:15;;;;;;;2.53;1.55;;;23.50;38.20;;;;;;4986681;28;20113;-75
2022/05/15 11:53:50;;;;;;;2.15;1.50;;;23.60;37.80;;;;;;4980512;28;20041;-75
2022/05/15 11:56:22;;;;;;;2.05;1.23;;;23.70;36.40;;;;;;4968559;28;20065;-77
2022/05/15 11:59:15;;;;;;;1.70;1.30;;;23.70;36.60;;;;;;4986086;28;20050;-77
2022/05/15 12:01:45;;;;;;;2.20;1.15;;;23.90;38.00;;;;;;4983908;28;20490;-76
2022/05/15 12:04:34;;;;;;;1.98;1.20;;;23.90;38.20;;;;;;4986648;28;22072;-76
2022/05/15 12:07:00;;;;;;;2.35;1.10;;;23.70;39.20;;;;;;4952499;28;20096;-75
2022/05/15 12:09:50;;;;;;;1.27;1.10;;;23.70;35.50;;;;;;4985652;28;20046;-75
2022/05/15 12:12:30;;;;;;;3.15;1.20;;;23.70;38.10;;;;;;4966094;28;20546;-75
2022/05/15 12:15:16;;;;;;;3.97;1.13;;;23.80;38.20;;;;;;4982771;28;20034;-78
2022/05/15 12:17:59;;;;;;;1.30;1.20;;;23.80;36.80;;;;;;4984761;28;20038;-77
2022/05/15 12:20:28;;;;;;;2.15;1.02;;;23.70;36.40;;;;;;4987281;28;20046;-78
2022/05/15 12:23:03;;;;;;;1.30;1.15;;;23.70;38.00;;;;;;4987556;28;20042;-78
2022/05/15 12:26:00;;;;;;;2.33;1.15;;;23.70;38.00;;;;;;4986153;28;20037;-78
2022/05/15 12:28:57;;;;;;;1.30;1.20;;;23.70;37.90;;;;;;4985949;28;20144;-76
2022/05/15 12:31:27;;;;;;;;;;;23.60;36.90;;;;;;4984268;28;20042;-77
2022/05/15 12:33:53;;;;;;;1.73;1.05;;;23.60;35.70;;;;;;4985403;28;20261;-76
2022/05/15 12:36:54;;;;;;;1.27;1.17;;;23.60;33.80;;;;;;4987963;28;20164;-78
2022/05/15 12:39:27;;;;;;;2.17;1.38;;;23.80;40.60;;;;;;4964460;28;20054;-78
2022/05/15 12:41:53;;;;;;;1.45;1.20;;;23.70;35.90;;;;;;4988923;28;20034;-77
2022/05/15 12:44:37;;;;;;;2.47;1.30;;;23.70;38.00;;;;;;4993581;28;20041;-77
2022/05/15 12:47:09;;;;;;;1.40;1.30;;;23.70;35.60;;;;;;4986786;28;20150;-78
2022/05/15 12:49:43;;;;;;;1.67;1.10;;;23.60;36.60;;;;;;4991233;28;20034;-77
2022/05/15 12:52:13;;;;;;;1.23;1.10;;;23.70;38.50;;;;;;4990634;28;20054;-77
2022/05/15 12:54:39;;;;;;;2.85;1.33;;;23.70;35.90;;;;;;4969247;28;20042;-77
2022/05/15 12:57:09;;;;;;;3.70;1.50;;;23.70;36.50;;;;;;4985968;28;20077;-78
2022/05/15 12:59:38;;;;;;;3.55;1.20;;;23.70;37.90;;;;;;4986518;28;20145;-77
2022/05/15 13:02:35;;;;;;;1.92;1.13;;;23.70;35.80;;;;;;4990699;28;20062;-77
2022/05/15 13:05:26;;;;;;;1.85;1.48;;;23.60;34.90;;;;;;4978482;28;20046;-77
2022/05/15 13:07:58;;;;;;;1.38;1.27;;;23.70;36.40;;;;;;4986849;28;20133;-77
2022/05/15 13:10:26;;;;;;;3.33;1.13;;;23.60;33.90;;;;;;4985699;28;20192;-77
2022/05/15 13:13:19;;;;;;;2.47;1.25;;;23.60;35.40;;;;;;4986423;28;20034;-77
2022/05/15 13:15:49;;;;;;;1.35;1.17;;;23.70;36.30;;;;;;4972410;28;20035;-76
2022/05/15 13:18:15;;;;;;;2.45;1.45;;;23.90;38.40;;;;;;4989262;28;20053;-76
2022/05/15 13:20:52;;;;;;;2.70;1.40;;;23.90;35.70;;;;;;4992706;28;20045;-76
2022/05/15 13:23:22;;;;;;;1.23;1.20;;;24.00;37.90;;;;;;4985771;28;20032;-76
2022/05/15 13:25:53;;;;;;;5.35;2.00;;;24.00;36.20;;;;;;4993067;28;20057;-76
2022/05/15 13:28:39;;;;;;;1.42;1.02;;;23.90;35.40;;;;;;4983572;28;20038;-76
2022/05/15 13:31:11;;;;;;;1.00;1.00;;;23.90;35.60;;;;;;4967022;28;20042;-75